Time;durP1;ratioP1;P1;durP2;ratioP2;P2;SDS_P1;SDS_P2;PMS_P1;PMS_P2;Temp;Humidity;BMP_temperature;BMP_pressure;BME280_temperature;BME280_humidity;BME280_pressure;Samples;Min_cycle;Max_cycle;Signal;HPM_P1;HPM_P2
2024/02/20 00:00:55;;;;;;;31.23;17.00;;;7.30;99.90;;;;;;5074354;28;20458;-65
2024/02/20 00:03:22;;;;;;;34.80;18.17;;;7.30;99.90;;;;;;5074591;28;20772;-65
2024/02/20 00:05:52;;;;;;;32.50;19.47;;;7.30;99.90;;;;;;5074339;28;20461;-64
2024/02/20 00:08:20;;;;;;;46.40;19.90;;;7.30;99.90;;;;;;5074669;28;20913;-65
2024/02/20 00:10:47;;;;;;;48.27;19.20;;;7.30;99.90;;;;;;5074015;28;20851;-64
2024/02/20 00:13:17;;;;;;;33.67;18.60;;;7.30;99.90;;;;;;5075070;28;20463;-65
2024/02/20 00:15:47;;;;;;;28.77;17.23;;;7.20;99.90;;;;;;5075585;28;20469;-65
2024/02/20 00:18:14;;;;;;;37.50;20.50;;;7.20;99.90;;;;;;5076021;28;20797;-64
2024/02/20 00:20:43;;;;;;;34.60;20.00;;;7.20;99.90;;;;;;5075379;28;20495;-65
2024/02/20 00:23:13;;;;;;;29.20;18.00;;;7.20;99.90;;;;;;5075388;28;20462;-65
2024/02/20 00:25:41;;;;;;;36.20;19.70;;;7.10;99.90;;;;;;5075871;28;20778;-64
2024/02/20 00:28:10;;;;;;;34.53;19.70;;;7.10;99.90;;;;;;5075925;28;20514;-65
2024/02/20 00:30:40;;;;;;;39.67;19.00;;;7.20;99.90;;;;;;5074959;28;20557;-65
2024/02/20 00:33:08;;;;;;;40.00;21.50;;;7.10;99.90;;;;;;5075666;28;20750;-66
2024/02/20 00:35:36;;;;;;;34.20;19.03;;;7.00;99.90;;;;;;5075410;28;20458;-64
2024/02/20 00:38:03;;;;;;;42.40;20.80;;;7.00;99.90;;;;;;5074964;28;20746;-64
2024/02/20 00:40:30;;;;;;;39.93;21.40;;;7.00;99.90;;;;;;5075147;28;20453;-65
2024/02/20 00:42:58;;;;;;;37.27;21.70;;;7.10;99.90;;;;;;5075113;28;20545;-65
2024/02/20 00:45:26;;;;;;;38.03;20.43;;;7.10;99.90;;;;;;5075356;28;20564;-65
2024/02/20 00:47:53;;;;;;;39.33;21.60;;;7.00;99.90;;;;;;5075412;28;20510;-64
2024/02/20 00:50:23;;;;;;;36.40;21.33;;;7.00;99.90;;;;;;5075201;28;20536;-64
2024/02/20 00:52:50;;;;;;;46.30;22.10;;;7.10;99.90;;;;;;5075125;28;20886;-65
2024/02/20 00:55:17;;;;;;;41.47;21.97;;;7.00;99.90;;;;;;5075200;28;20752;-65
2024/02/20 00:57:45;;;;;;;39.47;21.77;;;7.00;99.90;;;;;;5075180;28;20461;-64
2024/02/20 01:00:13;;;;;;;39.83;21.50;;;7.00;99.90;;;;;;5075494;28;20462;-64
2024/02/20 01:02:41;;;;;;;41.27;21.83;;;7.00;99.90;;;;;;5074749;28;20887;-65
2024/02/20 01:05:09;;;;;;;42.07;22.37;;;7.00;99.90;;;;;;5073723;28;20457;-65
2024/02/20 01:07:39;;;;;;;42.43;22.30;;;6.90;99.90;;;;;;5054246;28;20454;-65
2024/02/20 01:10:08;;;;;;;41.77;21.70;;;7.00;99.90;;;;;;5054837;28;20849;-65
2024/02/20 01:12:35;;;;;;;40.77;21.50;;;7.00;99.90;;;;;;5054656;28;20458;-64
2024/02/20 01:15:02;;;;;;;39.57;22.20;;;7.00;99.90;;;;;;5054942;28;20484;-65
2024/02/20 01:17:30;;;;;;;41.53;23.37;;;6.90;99.90;;;;;;5054143;28;20462;-65
2024/02/20 01:19:58;;;;;;;44.97;21.70;;;7.00;99.90;;;;;;5054898;28;20871;-65
2024/02/20 01:22:26;;;;;;;49.40;24.73;;;7.00;99.90;;;;;;5054419;28;20463;-65
2024/02/20 01:24:54;;;;;;;35.73;22.37;;;7.00;99.90;;;;;;5054771;27;20458;-65
2024/02/20 01:27:22;;;;;;;51.20;24.33;;;7.00;99.90;;;;;;5054862;27;20463;-65
2024/02/20 01:29:50;;;;;;;47.87;22.20;;;7.00;99.90;;;;;;5054432;28;20464;-66
2024/02/20 01:32:17;;;;;;;42.80;23.73;;;6.90;99.90;;;;;;5054558;27;20958;-64
2024/02/20 01:34:45;;;;;;;45.73;23.67;;;6.90;99.90;;;;;;5055058;28;20527;-66
2024/02/20 01:37:12;;;;;;;48.73;25.23;;;6.90;99.90;;;;;;5054514;28;20451;-65
2024/02/20 01:39:39;;;;;;;48.27;24.47;;;6.90;99.90;;;;;;5054281;27;20475;-65
2024/02/20 01:42:08;;;;;;;43.67;23.37;;;6.90;99.90;;;;;;5054767;27;20458;-66
2024/02/20 01:44:36;;;;;;;48.60;25.50;;;6.80;99.90;;;;;;5054592;28;20875;-64
2024/02/20 01:47:05;;;;;;;44.43;24.30;;;6.90;99.90;;;;;;5054030;28;20462;-65
2024/02/20 01:49:34;;;;;;;45.10;25.43;;;6.90;99.90;;;;;;5055724;27;20470;-65
2024/02/20 01:52:01;;;;;;;47.07;27.30;;;6.80;99.90;;;;;;5057694;27;20846;-64
2024/02/20 01:54:29;;;;;;;51.93;25.73;;;6.90;99.90;;;;;;5057272;28;20762;-65
2024/02/20 01:56:56;;;;;;;49.20;23.47;;;6.80;99.90;;;;;;5057750;28;20505;-65
2024/02/20 01:59:25;;;;;;;60.43;28.00;;;6.80;99.90;;;;;;5057125;28;20458;-65
2024/02/20 02:01:53;;;;;;;49.67;26.10;;;6.80;99.90;;;;;;5057110;28;20462;-64
2024/02/20 02:04:20;;;;;;;50.43;24.70;;;6.80;99.90;;;;;;5057557;28;20466;-65
2024/02/20 02:06:47;;;;;;;54.87;24.57;;;6.80;99.90;;;;;;5057725;28;20464;-65
2024/02/20 02:09:15;;;;;;;49.50;24.93;;;6.80;99.90;;;;;;5057559;28;20911;-65
2024/02/20 02:11:43;;;;;;;40.67;23.50;;;6.80;99.90;;;;;;5057487;28;20539;-65
2024/02/20 02:14:11;;;;;;;56.60;25.57;;;6.80;99.90;;;;;;5057950;28;20481;-64
2024/02/20 02:16:39;;;;;;;49.00;23.63;;;6.80;99.90;;;;;;5057224;28;20563;-64
2024/02/20 02:19:07;;;;;;;60.40;26.67;;;6.70;99.90;;;;;;5057571;28;20766;-64
2024/02/20 02:21:36;;;;;;;54.70;24.23;;;6.70;99.90;;;;;;5057054;28;20451;-65
2024/02/20 02:24:05;;;;;;;55.50;25.60;;;6.70;99.90;;;;;;5057071;28;20470;-65
2024/02/20 02:26:34;;;;;;;53.00;25.77;;;6.70;99.90;;;;;;5057635;28;20466;-65
2024/02/20 02:29:02;;;;;;;54.97;23.90;;;6.70;99.90;;;;;;5057492;28;20449;-64
2024/02/20 02:31:29;;;;;;;42.53;22.60;;;6.70;99.90;;;;;;5056973;28;20533;-65
2024/02/20 02:33:57;;;;;;;44.63;21.27;;;6.60;99.90;;;;;;5056790;28;20560;-67
2024/02/20 02:36:25;;;;;;;42.53;20.80;;;6.60;99.90;;;;;;5056887;28;20461;-64
2024/02/20 02:38:52;;;;;;;40.27;20.13;;;6.60;99.90;;;;;;5057678;28;20458;-65
2024/02/20 02:41:21;;;;;;;43.13;20.27;;;6.60;99.90;;;;;;5057094;28;20459;-64
2024/02/20 02:43:50;;;;;;;51.60;20.10;;;6.60;99.90;;;;;;5057144;28;20572;-65
2024/02/20 02:46:18;;;;;;;38.70;20.20;;;6.60;99.90;;;;;;5056889;28;20465;-65
2024/02/20 02:48:46;;;;;;;40.73;19.20;;;6.60;99.90;;;;;;5057482;28;20514;-64
2024/02/20 02:51:13;;;;;;;46.33;18.23;;;6.50;99.90;;;;;;5056895;28;20497;-65
2024/02/20 02:53:40;;;;;;;36.30;17.30;;;6.60;99.90;;;;;;5056262;28;20529;-64
2024/02/20 02:56:11;;;;;;;43.70;17.87;;;6.50;99.90;;;;;;5056785;28;20476;-65
2024/02/20 02:58:40;;;;;;;35.97;16.27;;;6.60;99.90;;;;;;5056415;28;20465;-65
2024/02/20 03:01:09;;;;;;;43.97;18.10;;;6.60;99.90;;;;;;5056344;28;20513;-65
2024/02/20 03:03:36;;;;;;;34.90;17.13;;;6.60;99.90;;;;;;5056736;28;20463;-64
2024/02/20 03:06:08;;;;;;;39.60;16.50;;;6.60;99.90;;;;;;5057008;28;20498;-65
2024/02/20 03:08:36;;;;;;;43.17;18.27;;;6.50;99.90;;;;;;5056665;28;20466;-64
2024/02/20 03:11:05;;;;;;;47.37;19.83;;;6.50;99.90;;;;;;5056619;28;20793;-65
2024/02/20 03:13:33;;;;;;;48.23;19.67;;;6.60;99.90;;;;;;5056304;28;20490;-64
2024/02/20 03:16:01;;;;;;;39.53;17.70;;;6.60;99.90;;;;;;5056565;28;20463;-64
2024/02/20 03:18:32;;;;;;;34.67;17.97;;;6.60;99.90;;;;;;5056543;28;20465;-65
2024/02/20 03:21:01;;;;;;;36.07;18.40;;;6.60;99.90;;;;;;5056829;28;20455;-65
2024/02/20 03:23:29;;;;;;;38.60;17.17;;;6.60;99.90;;;;;;5056154;28;20462;-65
2024/02/20 03:25:57;;;;;;;48.40;19.97;;;6.60;99.90;;;;;;5056528;28;20807;-65
2024/02/20 03:28:25;;;;;;;40.13;19.00;;;6.60;99.90;;;;;;5056376;28;20466;-65
2024/02/20 03:30:52;;;;;;;41.40;19.17;;;6.60;99.90;;;;;;5056744;28;20494;-64
2024/02/20 03:33:20;;;;;;;39.60;19.67;;;6.60;99.90;;;;;;5056439;28;20472;-64
2024/02/20 03:35:50;;;;;;;41.03;19.50;;;6.60;99.90;;;;;;5056087;28;20469;-64
2024/02/20 03:38:17;;;;;;;37.40;18.63;;;6.60;99.90;;;;;;5056051;28;20502;-65
2024/02/20 03:40:45;;;;;;;41.43;20.33;;;6.60;99.90;;;;;;5056504;28;20437;-65
2024/02/20 03:43:12;;;;;;;43.87;20.03;;;6.50;99.90;;;;;;5056186;28;20444;-65
2024/02/20 03:45:39;;;;;;;47.57;20.37;;;6.50;99.90;;;;;;5056012;28;20466;-64
2024/02/20 03:48:07;;;;;;;42.17;20.43;;;6.60;99.90;;;;;;5056262;28;20502;-65
2024/02/20 03:50:35;;;;;;;45.93;20.63;;;6.60;99.90;;;;;;5055911;28;20502;-65
2024/02/20 03:53:04;;;;;;;58.83;21.20;;;6.50;99.90;;;;;;5056285;28;20507;-65
2024/02/20 03:55:31;;;;;;;42.40;20.40;;;6.50;99.90;;;;;;5055668;28;20490;-64
2024/02/20 03:58:01;;;;;;;45.43;22.60;;;6.50;99.90;;;;;;5055255;28;20454;-65
2024/02/20 04:00:28;;;;;;;49.57;21.90;;;6.50;99.90;;;;;;5055779;27;20481;-65
2024/02/20 04:02:56;;;;;;;48.60;21.57;;;6.50;99.90;;;;;;5056331;28;20454;-65
2024/02/20 04:05:24;;;;;;;51.53;23.10;;;6.50;99.90;;;;;;5055595;28;20817;-65
2024/02/20 04:07:51;;;;;;;47.13;23.57;;;6.50;99.90;;;;;;5055556;28;20832;-65
2024/02/20 04:10:20;;;;;;;39.97;22.17;;;6.50;99.90;;;;;;5055751;27;20963;-65
2024/02/20 04:12:47;;;;;;;57.83;23.30;;;6.50;99.90;;;;;;5054703;28;20989;-65
2024/02/20 04:15:15;;;;;;;54.23;23.77;;;6.50;99.90;;;;;;5055576;27;20833;-65
2024/02/20 04:17:42;;;;;;;40.57;22.70;;;6.50;99.90;;;;;;5055846;27;20467;-65
2024/02/20 04:20:11;;;;;;;46.13;23.10;;;6.50;99.90;;;;;;5055521;28;20966;-65
2024/02/20 04:22:39;;;;;;;44.87;20.67;;;6.60;99.90;;;;;;5055748;27;20931;-65
2024/02/20 04:25:07;;;;;;;40.57;21.17;;;6.60;99.90;;;;;;5055337;27;20462;-65
2024/02/20 04:27:39;;;;;;;40.97;22.50;;;6.50;99.90;;;;;;5055505;27;20515;-65
2024/02/20 04:30:08;;;;;;;44.17;21.73;;;6.50;99.90;;;;;;5055313;28;20790;-65
2024/02/20 04:32:36;;;;;;;42.77;23.07;;;6.50;99.90;;;;;;5054366;28;20533;-65
2024/02/20 04:35:03;;;;;;;44.40;23.17;;;6.60;99.90;;;;;;5054997;28;20905;-65
2024/02/20 04:37:30;;;;;;;53.90;24.30;;;6.50;99.90;;;;;;5054606;28;20549;-65
2024/02/20 04:39:58;;;;;;;38.10;22.70;;;6.50;99.90;;;;;;5055086;28;20454;-65
2024/02/20 04:42:26;;;;;;;41.10;22.87;;;6.40;99.90;;;;;;5054782;28;20906;-65
2024/02/20 04:44:55;;;;;;;46.37;23.60;;;6.40;99.90;;;;;;5055185;28;20511;-66
2024/02/20 04:47:22;;;;;;;48.50;22.03;;;6.50;99.90;;;;;;5054912;28;20553;-65
2024/02/20 04:49:51;;;;;;;38.37;22.53;;;6.50;99.90;;;;;;5054773;28;20494;-65
2024/02/20 04:52:19;;;;;;;50.10;23.63;;;6.50;99.90;;;;;;5054582;28;20542;-65
2024/02/20 04:54:46;;;;;;;49.90;24.50;;;6.40;99.90;;;;;;5054583;28;20494;-65
2024/02/20 04:57:13;;;;;;;49.27;25.20;;;6.40;99.90;;;;;;5054890;28;20922;-65
2024/02/20 04:59:41;;;;;;;50.53;25.13;;;6.40;99.90;;;;;;5054733;28;20466;-65
2024/02/20 05:02:10;;;;;;;57.40;26.30;;;6.40;99.90;;;;;;5054061;28;20457;-65
2024/02/20 05:04:37;;;;;;;44.83;24.80;;;6.40;99.90;;;;;;5054503;28;20515;-65
2024/02/20 05:07:06;;;;;;;42.43;23.43;;;6.40;99.90;;;;;;5054407;28;20501;-65
2024/02/20 05:09:33;;;;;;;45.50;25.93;;;6.40;99.90;;;;;;5054076;28;20458;-65
2024/02/20 05:12:01;;;;;;;43.87;25.53;;;6.40;99.90;;;;;;5054322;28;20813;-65
2024/02/20 05:14:28;;;;;;;42.90;25.10;;;6.40;99.90;;;;;;5054573;28;20809;-65
2024/02/20 05:16:55;;;;;;;51.80;27.07;;;6.40;99.90;;;;;;5054728;28;20525;-65
2024/02/20 05:19:24;;;;;;;52.07;27.00;;;6.50;99.90;;;;;;5054605;28;20454;-65
2024/02/20 05:21:52;;;;;;;45.67;23.17;;;6.50;99.90;;;;;;5054265;28;20511;-65
2024/02/20 05:24:19;;;;;;;48.03;25.03;;;6.50;99.90;;;;;;5053968;28;20508;-65
2024/02/20 05:26:47;;;;;;;40.83;22.90;;;6.50;99.90;;;;;;5054523;28;20553;-65
2024/02/20 05:29:14;;;;;;;43.87;24.97;;;6.50;99.90;;;;;;5054729;28;20879;-65
2024/02/20 05:31:41;;;;;;;39.10;22.43;;;6.40;99.90;;;;;;5054109;28;20580;-64
2024/02/20 05:34:09;;;;;;;48.83;24.77;;;6.50;99.90;;;;;;5054357;28;20517;-65
2024/02/20 05:36:37;;;;;;;45.00;24.00;;;6.40;99.90;;;;;;5054224;28;20556;-65
2024/02/20 05:39:07;;;;;;;50.50;25.60;;;6.40;99.90;;;;;;5054889;28;20520;-66
2024/02/20 05:41:34;;;;;;;49.60;25.60;;;6.40;99.90;;;;;;5054102;28;20459;-65
2024/02/20 05:44:02;;;;;;;45.80;24.27;;;6.50;99.90;;;;;;5054193;28;20503;-65
2024/02/20 05:46:30;;;;;;;50.37;25.90;;;6.50;99.90;;;;;;5054474;28;20911;-65
2024/02/20 05:48:58;;;;;;;42.07;23.97;;;6.50;99.90;;;;;;5054715;28;20564;-65
2024/02/20 05:51:27;;;;;;;51.33;24.07;;;6.50;99.90;;;;;;5054115;28;20887;-65
2024/02/20 05:53:56;;;;;;;45.17;25.20;;;6.40;99.90;;;;;;5054080;28;20546;-66
2024/02/20 05:56:23;;;;;;;48.63;26.93;;;6.40;99.90;;;;;;5054386;28;20497;-65
2024/02/20 05:58:51;;;;;;;47.13;24.10;;;6.30;99.90;;;;;;5054815;28;20795;-65
2024/02/20 06:01:18;;;;;;;45.30;23.90;;;6.30;99.90;;;;;;5054316;28;20474;-65
2024/02/20 06:03:46;;;;;;;49.47;24.87;;;6.30;99.90;;;;;;5054015;28;20958;-66
2024/02/20 06:06:14;;;;;;;61.90;24.97;;;6.30;99.90;;;;;;5054086;28;20501;-65
2024/02/20 06:08:44;;;;;;;44.73;25.20;;;6.30;99.90;;;;;;5054376;28;20970;-66
2024/02/20 06:11:15;;;;;;;45.17;23.87;;;6.30;99.90;;;;;;5054218;28;20825;-65
2024/02/20 06:13:42;;;;;;;42.77;24.43;;;6.30;99.90;;;;;;5054029;28;20486;-65
2024/02/20 06:16:10;;;;;;;50.13;25.30;;;6.30;99.90;;;;;;5053896;28;20462;-65
2024/02/20 06:18:38;;;;;;;53.63;26.17;;;6.20;99.90;;;;;;5053637;28;20462;-65
2024/02/20 06:21:06;;;;;;;47.77;25.17;;;6.30;99.90;;;;;;5052588;28;20845;-65
2024/02/20 06:23:36;;;;;;;45.50;23.57;;;6.30;99.90;;;;;;5053178;28;20821;-65
2024/02/20 06:26:03;;;;;;;39.97;24.03;;;6.30;99.90;;;;;;5053462;28;20462;-65
2024/02/20 06:28:32;;;;;;;40.93;26.43;;;6.30;99.90;;;;;;5053740;28;20459;-66
2024/02/20 06:31:00;;;;;;;50.67;26.90;;;6.30;99.90;;;;;;5053413;28;20507;-65
2024/02/20 06:33:27;;;;;;;52.00;25.00;;;6.40;99.90;;;;;;5052966;28;20489;-65
2024/02/20 06:35:54;;;;;;;56.43;28.60;;;6.40;99.90;;;;;;5055182;28;20454;-66
2024/02/20 06:38:22;;;;;;;57.20;28.03;;;6.40;99.90;;;;;;5056765;28;20903;-65
2024/02/20 06:40:49;;;;;;;43.47;25.40;;;6.30;99.90;;;;;;5055734;28;20451;-65
2024/02/20 06:43:16;;;;;;;50.07;26.10;;;6.40;99.90;;;;;;5054533;28;20548;-65
2024/02/20 06:45:45;;;;;;;57.50;28.53;;;6.40;99.90;;;;;;5054651;28;20458;-65
2024/02/20 06:48:12;;;;;;;38.53;24.70;;;6.30;99.90;;;;;;5055177;28;20799;-64
2024/02/20 06:50:39;;;;;;;47.23;26.20;;;6.40;99.90;;;;;;5054820;28;20458;-64
2024/02/20 06:53:07;;;;;;;58.53;28.17;;;6.40;99.90;;;;;;5056222;28;20452;-65
2024/02/20 06:55:36;;;;;;;54.80;28.07;;;6.40;99.90;;;;;;5055122;28;20461;-64
2024/02/20 06:58:03;;;;;;;49.57;25.63;;;6.30;99.90;;;;;;5055265;28;20458;-64
2024/02/20 07:00:30;;;;;;;46.67;25.80;;;6.40;99.90;;;;;;5053397;28;20493;-64
2024/02/20 07:02:59;;;;;;;54.63;26.70;;;6.40;99.90;;;;;;5055124;28;20907;-65
2024/02/20 07:05:26;;;;;;;45.47;25.83;;;6.40;99.90;;;;;;5052926;28;20514;-64
2024/02/20 07:07:54;;;;;;;51.50;26.63;;;6.40;99.90;;;;;;5053016;28;20853;-64
2024/02/20 07:10:21;;;;;;;48.27;26.83;;;6.50;99.90;;;;;;5053853;28;20466;-64
2024/02/20 07:12:49;;;;;;;56.80;28.80;;;6.60;99.90;;;;;;5052847;28;20483;-64
2024/02/20 07:15:16;;;;;;;53.60;27.30;;;6.50;99.90;;;;;;5053468;28;20465;-65
2024/02/20 07:17:43;;;;;;;55.60;25.30;;;6.50;99.90;;;;;;5053396;28;20497;-64
2024/02/20 07:20:13;;;;;;;52.53;27.33;;;6.50;99.90;;;;;;5054751;28;20454;-64
2024/02/20 07:22:40;;;;;;;63.30;27.90;;;6.60;99.90;;;;;;5054583;28;20454;-64
2024/02/20 07:25:08;;;;;;;40.63;25.77;;;6.60;99.90;;;;;;5054896;28;20455;-64
2024/02/20 07:27:36;;;;;;;41.53;25.57;;;6.60;99.90;;;;;;5055271;28;20472;-64
2024/02/20 07:30:04;;;;;;;54.00;28.70;;;6.70;99.90;;;;;;5056069;28;20458;-64
2024/02/20 07:32:31;;;;;;;43.17;25.00;;;6.70;99.90;;;;;;5056167;28;21010;-64
2024/02/20 07:34:59;;;;;;;42.83;22.67;;;6.80;99.90;;;;;;5055982;28;20799;-64
2024/02/20 07:37:28;;;;;;;50.10;24.13;;;6.80;99.90;;;;;;5055340;28;20899;-64
2024/02/20 07:39:55;;;;;;;41.43;22.53;;;6.70;99.90;;;;;;5055844;28;20875;-64
2024/02/20 07:42:22;;;;;;;46.43;21.20;;;6.80;99.90;;;;;;5056301;28;20455;-64
2024/02/20 07:44:49;;;;;;;46.80;21.70;;;6.80;99.90;;;;;;5056089;28;20560;-64
2024/02/20 07:47:17;;;;;;;43.50;23.10;;;6.90;99.90;;;;;;5055899;28;20564;-64
2024/02/20 07:49:46;;;;;;;39.40;22.33;;;6.90;99.90;;;;;;5056206;28;20466;-64
2024/02/20 07:52:13;;;;;;;44.00;21.80;;;6.90;99.90;;;;;;5055735;28;20485;-63
2024/02/20 07:54:42;;;;;;;38.57;20.53;;;7.00;99.90;;;;;;5055114;28;20478;-64
2024/02/20 07:57:10;;;;;;;39.17;21.00;;;7.00;99.90;;;;;;5055856;28;20462;-63
2024/02/20 07:59:40;;;;;;;37.57;21.93;;;7.10;99.90;;;;;;5055444;28;20555;-64
2024/02/20 08:02:09;;;;;;;39.50;22.27;;;7.10;99.90;;;;;;5055670;28;20478;-64
2024/02/20 08:04:37;;;;;;;39.20;21.43;;;7.10;99.90;;;;;;5055510;28;20466;-64
2024/02/20 08:07:05;;;;;;;38.87;20.60;;;7.20;99.90;;;;;;5055976;28;20462;-64
2024/02/20 08:09:32;;;;;;;40.30;21.37;;;7.20;99.90;;;;;;5055343;28;20462;-63
2024/02/20 08:12:01;;;;;;;46.00;24.13;;;7.20;99.90;;;;;;5041042;28;20942;-64
2024/02/20 08:14:30;;;;;;;33.63;21.67;;;7.20;99.90;;;;;;5035911;28;20489;-64
2024/02/20 08:16:59;;;;;;;45.60;20.87;;;7.20;99.90;;;;;;5035458;28;20553;-64
2024/02/20 08:19:26;;;;;;;45.97;23.70;;;7.20;99.90;;;;;;5035241;28;20726;-63
2024/02/20 08:21:54;;;;;;;39.17;22.30;;;7.20;99.90;;;;;;5035363;28;20462;-63
2024/02/20 08:24:21;;;;;;;40.27;22.93;;;7.20;99.90;;;;;;5035368;28;20467;-63
2024/02/20 08:26:49;;;;;;;40.47;23.70;;;7.20;99.90;;;;;;5035475;28;20519;-63
2024/02/20 08:29:18;;;;;;;43.60;24.40;;;7.20;99.90;;;;;;5035280;28;20911;-63
2024/02/20 08:31:47;;;;;;;43.00;23.87;;;7.30;99.90;;;;;;5034486;28;20554;-63
2024/02/20 08:34:14;;;;;;;46.43;25.83;;;7.30;99.90;;;;;;5033416;28;20495;-63
2024/02/20 08:36:42;;;;;;;42.90;23.93;;;7.40;99.90;;;;;;5033894;28;20463;-63
2024/02/20 08:39:09;;;;;;;43.00;26.57;;;7.40;99.90;;;;;;5034165;28;20547;-63
2024/02/20 08:41:36;;;;;;;40.83;26.13;;;7.40;99.90;;;;;;5033803;28;20461;-64
2024/02/20 08:44:04;;;;;;;39.07;23.77;;;7.50;99.90;;;;;;5033742;28;20519;-63
2024/02/20 08:46:34;;;;;;;43.83;23.17;;;7.60;99.90;;;;;;5033754;28;20455;-64
2024/02/20 08:49:02;;;;;;;51.57;26.23;;;7.50;99.90;;;;;;5035322;28;20899;-63
2024/02/20 08:51:30;;;;;;;33.90;23.73;;;7.60;99.90;;;;;;5034824;28;20462;-63
2024/02/20 08:53:57;;;;;;;37.60;22.67;;;7.70;99.90;;;;;;5034334;28;20514;-63
2024/02/20 08:56:24;;;;;;;33.23;21.37;;;7.70;99.90;;;;;;5034772;28;20460;-63
2024/02/20 08:58:52;;;;;;;37.53;20.20;;;7.80;99.90;;;;;;5034615;28;20467;-63
2024/02/20 09:01:24;;;;;;;33.30;19.80;;;7.90;99.90;;;;;;5034848;28;20466;-62
2024/02/20 09:03:53;;;;;;;34.43;20.93;;;7.70;99.90;;;;;;5034608;28;20464;-62
2024/02/20 09:06:20;;;;;;;33.13;19.53;;;7.80;99.90;;;;;;5035145;28;20463;-62
2024/02/20 09:08:48;;;;;;;33.30;21.30;;;7.80;99.90;;;;;;5035477;28;20785;-62
2024/02/20 09:11:16;;;;;;;33.77;18.27;;;7.80;99.90;;;;;;5034370;28;20470;-62
2024/02/20 09:13:43;;;;;;;39.20;22.30;;;7.80;99.90;;;;;;5034278;28;20494;-62
2024/02/20 09:16:10;;;;;;;37.63;20.77;;;7.70;99.90;;;;;;5034323;28;20486;-62
2024/02/20 09:18:38;;;;;;;32.83;19.93;;;7.80;99.90;;;;;;5034808;28;20730;-62
2024/02/20 09:21:08;;;;;;;37.93;19.80;;;7.90;99.90;;;;;;5034113;28;20512;-62
2024/02/20 09:23:37;;;;;;;36.57;19.33;;;8.00;99.90;;;;;;5033399;28;20502;-62
2024/02/20 09:26:06;;;;;;;39.07;18.23;;;8.10;99.90;;;;;;5032883;28;20561;-62
2024/02/20 09:28:34;;;;;;;33.53;18.70;;;8.20;99.90;;;;;;5033639;28;20755;-62
2024/02/20 09:31:01;;;;;;;41.23;20.23;;;8.30;99.90;;;;;;5033421;28;20470;-62
2024/02/20 09:33:30;;;;;;;38.67;20.17;;;8.30;99.90;;;;;;5032756;28;20495;-62
2024/02/20 09:35:58;;;;;;;34.73;19.17;;;8.30;99.90;;;;;;5033744;28;20844;-61
2024/02/20 09:38:27;;;;;;;37.50;20.17;;;8.30;99.90;;;;;;5034617;28;20903;-61
2024/02/20 09:40:55;;;;;;;33.30;17.90;;;8.30;99.90;;;;;;5033679;28;20470;-62
2024/02/20 09:43:24;;;;;;;31.50;16.80;;;8.40;99.90;;;;;;5049114;28;20863;-62
2024/02/20 09:45:56;;;;;;;31.50;17.80;;;8.60;99.90;;;;;;5052751;28;20937;-61
2024/02/20 09:48:24;;;;;;;28.03;15.50;;;8.70;99.90;;;;;;5053332;28;20466;-61
2024/02/20 09:50:54;;;;;;;36.70;17.87;;;8.60;99.90;;;;;;5054280;28;20560;-61
2024/02/20 09:53:22;;;;;;;38.80;19.70;;;8.70;99.90;;;;;;5053379;28;20511;-61
2024/02/20 09:55:54;;;;;;;33.53;19.13;;;8.70;99.90;;;;;;5053528;28;20462;-61
2024/02/20 09:58:22;;;;;;;28.43;15.80;;;8.80;99.90;;;;;;5053801;28;20458;-61
2024/02/20 10:00:55;;;;;;;28.50;16.50;;;8.90;99.90;;;;;;5054058;28;20487;-61
2024/02/20 10:03:24;;;;;;;30.30;15.07;;;8.80;99.90;;;;;;5053505;28;20455;-61
2024/02/20 10:05:52;;;;;;;32.10;14.70;;;8.80;99.90;;;;;;5053650;28;20738;-62
2024/02/20 10:08:25;;;;;;;28.07;14.87;;;8.90;99.90;;;;;;5053897;28;20502;-62
2024/02/20 10:10:54;;;;;;;30.53;16.10;;;8.90;99.90;;;;;;5055547;28;20510;-62
2024/02/20 10:13:21;;;;;;;35.67;16.80;;;8.90;99.90;;;;;;5057416;28;20528;-61
2024/02/20 10:15:49;;;;;;;25.20;14.47;;;9.00;99.90;;;;;;5056593;28;20450;-62
2024/02/20 10:18:19;;;;;;;26.37;15.40;;;9.10;99.90;;;;;;5055786;28;20454;-62
2024/02/20 10:20:47;;;;;;;27.63;14.23;;;9.00;99.90;;;;;;5056026;28;20468;-61
2024/02/20 10:23:17;;;;;;;27.50;14.77;;;9.00;99.90;;;;;;5056027;28;20458;-61
2024/02/20 10:25:56;;;;;;;26.07;14.70;;;9.10;1.00;;;;;;5055759;28;20492;-62
2024/02/20 10:28:25;;;;;;;25.90;15.07;;;9.20;1.00;;;;;;5056795;28;20458;-61
2024/02/20 10:30:54;;;;;;;26.57;13.40;;;9.30;99.90;;;;;;5057469;28;20487;-61
2024/02/20 10:33:21;;;;;;;29.63;12.47;;;9.20;99.90;;;;;;5056694;28;20784;-61
2024/02/20 10:35:49;;;;;;;24.37;12.70;;;9.20;99.90;;;;;;5056270;28;20458;-60
2024/02/20 10:38:20;;;;;;;25.40;13.20;;;9.40;1.00;;;;;;5056165;28;20895;-61
2024/02/20 10:40:48;;;;;;;32.70;12.60;;;9.30;99.90;;;;;;5055773;28;20756;-61
2024/02/20 10:43:17;;;;;;;26.07;12.63;;;9.40;99.90;;;;;;5056521;28;20459;-61
2024/02/20 10:45:51;;;;;;;25.43;14.63;;;9.40;1.00;;;;;;5056123;28;20462;-63
2024/02/20 10:48:23;;;;;;;27.73;13.90;;;9.50;1.00;;;;;;5055917;28;20780;-68
2024/02/20 10:50:51;;;;;;;25.60;13.87;;;9.30;99.90;;;;;;5055472;28;20462;-62
2024/02/20 10:53:19;;;;;;;23.13;12.60;;;9.30;99.90;;;;;;5055032;28;20502;-63
2024/02/20 10:55:47;;;;;;;24.20;12.30;;;9.30;99.90;;;;;;5054810;28;20458;-62
2024/02/20 10:58:16;;;;;;;26.40;13.13;;;9.30;90.30;;;;;;5056248;28;20462;-62
2024/02/20 11:00:46;;;;;;;29.63;13.87;;;9.30;1.00;;;;;;5056205;28;20462;-62
2024/02/20 11:03:15;;;;;;;28.80;14.50;;;9.20;1.00;;;;;;5056400;28;20454;-61
2024/02/20 11:05:42;;;;;;;26.60;14.50;;;9.20;99.90;;;;;;5056459;28;20466;-62
2024/02/20 11:08:10;;;;;;;30.40;14.40;;;9.30;99.90;;;;;;5056339;28;20459;-61
2024/02/20 11:10:39;;;;;;;32.43;14.83;;;9.30;99.90;;;;;;5056589;28;20887;-61
2024/02/20 11:13:15;;;;;;;31.63;14.80;;;9.30;99.90;;;;;;5056028;28;20502;-62
2024/02/20 11:15:42;;;;;;;34.57;16.10;;;9.20;99.90;;;;;;5056440;28;20458;-62
2024/02/20 11:18:18;;;;;;;26.07;15.00;;;9.20;99.90;;;;;;5056193;28;20465;-61
2024/02/20 11:20:47;;;;;;;27.80;15.27;;;9.10;99.90;;;;;;5056536;28;20476;-61
2024/02/20 11:23:15;;;;;;;27.80;15.30;;;9.20;99.90;;;;;;5056399;28;20458;-61
2024/02/20 11:25:42;;;;;;;27.83;15.13;;;9.20;99.90;;;;;;5056220;28;20458;-62
2024/02/20 11:28:14;;;;;;;31.10;15.30;;;9.20;99.90;;;;;;5054971;28;20906;-61
2024/02/20 11:30:42;;;;;;;28.73;14.00;;;9.20;99.90;;;;;;5056176;27;20466;-61
2024/02/20 11:33:15;;;;;;;28.80;15.70;;;9.20;99.90;;;;;;5056275;28;20499;-61
2024/02/20 11:35:45;;;;;;;28.73;14.77;;;9.20;99.90;;;;;;5066571;27;20462;-61
2024/02/20 11:38:13;;;;;;;26.43;13.67;;;9.20;99.90;;;;;;5070639;27;20455;-61
2024/02/20 11:40:40;;;;;;;27.33;14.13;;;9.20;99.90;;;;;;5035836;28;20464;-61
2024/02/20 11:43:10;;;;;;;28.27;13.97;;;9.30;99.90;;;;;;5036074;28;20459;-61
2024/02/20 11:45:37;;;;;;;23.70;13.50;;;9.30;99.90;;;;;;5034770;28;20498;-62
2024/02/20 11:48:07;;;;;;;28.97;12.43;;;9.30;99.90;;;;;;5035734;28;20512;-61
2024/02/20 11:50:37;;;;;;;26.00;13.33;;;9.30;99.90;;;;;;5036079;28;20890;-61
2024/02/20 11:53:07;;;;;;;25.57;14.30;;;9.40;99.90;;;;;;5035446;28;20463;-62
2024/02/20 11:55:35;;;;;;;30.97;14.37;;;9.40;99.90;;;;;;5035545;28;20544;-62
2024/02/20 11:58:04;;;;;;;28.80;13.30;;;9.40;99.90;;;;;;5035566;28;20455;-61
2024/02/20 12:00:35;;;;;;;28.57;13.70;;;9.30;99.90;;;;;;5035389;28;20529;-62
2024/02/20 12:03:03;;;;;;;32.93;14.17;;;9.30;99.90;;;;;;5035828;28;20463;-61
2024/02/20 12:05:37;;;;;;;31.77;15.17;;;9.30;99.90;;;;;;5035222;28;20494;-61
2024/02/20 12:08:14;;;;;;;31.53;15.53;;;9.30;99.90;;;;;;5035468;28;20502;-61
2024/02/20 12:10:42;;;;;;;33.63;14.70;;;9.40;99.90;;;;;;5035674;28;20458;-61
2024/02/20 12:13:14;;;;;;;25.53;15.10;;;9.40;99.90;;;;;;5036033;28;20950;-61
2024/02/20 12:15:42;;;;;;;29.27;14.97;;;9.40;99.90;;;;;;5035058;28;20473;-60
2024/02/20 12:18:10;;;;;;;26.37;13.87;;;9.40;99.90;;;;;;5034300;28;20459;-61
2024/02/20 12:20:38;;;;;;;26.67;15.37;;;9.50;87.60;;;;;;5033585;28;20455;-62
2024/02/20 12:23:07;;;;;;;23.70;12.93;;;9.40;65.40;;;;;;5033870;28;20487;-61
2024/02/20 12:25:34;;;;;;;26.90;14.00;;;9.30;29.50;;;;;;5033389;28;20544;-62
2024/02/20 12:28:02;;;;;;;22.70;13.47;;;9.30;68.50;;;;;;5033586;28;20463;-61
2024/02/20 12:30:29;;;;;;;31.70;14.40;;;9.30;71.90;;;;;;5033705;28;20463;-62
2024/02/20 12:32:57;;;;;;;24.37;14.03;;;9.30;62.20;;;;;;5033957;28;20897;-61
2024/02/20 12:35:24;;;;;;;27.27;13.90;;;9.40;66.70;;;;;;5034793;28;20495;-61
2024/02/20 12:37:52;;;;;;;23.70;13.23;;;9.40;63.00;;;;;;5035251;28;20463;-61
2024/02/20 12:40:21;;;;;;;34.93;14.43;;;9.40;51.50;;;;;;5034953;28;20469;-61
2024/02/20 12:42:48;;;;;;;24.77;14.10;;;9.50;54.00;;;;;;5035248;28;20463;-61